sensor_id;sensor_type;location;lat;lon;timestamp;pressure;altitude;pressure_sealevel;temperature;humidity
28267;BME280;15525;45.568;5.448;2024-03-29T00:01:16;96284.09;;;19.36;32.21
28267;BME280;15525;45.568;5.448;2024-03-29T00:03:42;96302.38;;;19.16;32.46
28267;BME280;15525;45.568;5.448;2024-03-29T00:06:08;96294.06;;;19.28;32.52
28267;BME280;15525;45.568;5.448;2024-03-29T00:08:34;96305.25;;;19.23;32.29
28267;BME280;15525;45.568;5.448;2024-03-29T00:10:59;96298.44;;;19.10;32.27
28267;BME280;15525;45.568;5.448;2024-03-29T00:13:24;96287.81;;;19.24;32.30
28267;BME280;15525;45.568;5.448;2024-03-29T00:15:50;96291.03;;;19.33;32.12
28267;BME280;15525;45.568;5.448;2024-03-29T00:18:15;96279.09;;;19.12;32.20
28267;BME280;15525;45.568;5.448;2024-03-29T00:20:40;96297.63;;;19.10;32.16
28267;BME280;15525;45.568;5.448;2024-03-29T00:23:06;96292.00;;;19.22;31.96
28267;BME280;15525;45.568;5.448;2024-03-29T00:25:31;96301.47;;;19.05;32.02
28267;BME280;15525;45.568;5.448;2024-03-29T00:27:57;96290.50;;;18.98;31.94
28267;BME280;15525;45.568;5.448;2024-03-29T00:30:22;96282.94;;;19.37;31.68
28267;BME280;15525;45.568;5.448;2024-03-29T00:32:48;96294.06;;;19.28;31.86
28267;BME280;15525;45.568;5.448;2024-03-29T00:35:13;96291.22;;;19.21;31.96
28267;BME280;15525;45.568;5.448;2024-03-29T00:37:39;96286.66;;;19.25;32.10
28267;BME280;15525;45.568;5.448;2024-03-29T00:40:05;96276.72;;;19.36;31.58
28267;BME280;15525;45.568;5.448;2024-03-29T00:42:31;96274.53;;;19.19;31.98
28267;BME280;15525;45.568;5.448;2024-03-29T00:44:56;96275.50;;;19.34;31.79
28267;BME280;15525;45.568;5.448;2024-03-29T00:47:21;96268.50;;;19.29;32.00
28267;BME280;15525;45.568;5.448;2024-03-29T00:49:47;96282.06;;;19.29;31.95
28267;BME280;15525;45.568;5.448;2024-03-29T00:52:12;96293.38;;;19.35;32.03
28267;BME280;15525;45.568;5.448;2024-03-29T00:54:38;96295.38;;;19.41;32.00
28267;BME280;15525;45.568;5.448;2024-03-29T00:57:03;96295.44;;;19.45;32.00
28267;BME280;15525;45.568;5.448;2024-03-29T00:59:28;96290.19;;;19.29;32.31
28267;BME280;15525;45.568;5.448;2024-03-29T01:01:54;96299.63;;;19.13;32.76
28267;BME280;15525;45.568;5.448;2024-03-29T01:04:20;96281.09;;;18.89;33.32
28267;BME280;15525;45.568;5.448;2024-03-29T01:06:45;96294.56;;;19.11;32.76
28267;BME280;15525;45.568;5.448;2024-03-29T01:09:11;96273.19;;;19.06;33.13
28267;BME280;15525;45.568;5.448;2024-03-29T01:11:39;96283.16;;;19.25;32.76
28267;BME280;15525;45.568;5.448;2024-03-29T01:14:05;96291.91;;;19.41;32.71
28267;BME280;15525;45.568;5.448;2024-03-29T01:16:31;96293.59;;;19.23;33.12
28267;BME280;15525;45.568;5.448;2024-03-29T01:18:57;96283.59;;;19.04;33.47
28267;BME280;15525;45.568;5.448;2024-03-29T01:21:23;96294.97;;;19.13;33.60
28267;BME280;15525;45.568;5.448;2024-03-29T01:23:49;96279.16;;;19.19;33.49
28267;BME280;15525;45.568;5.448;2024-03-29T01:26:14;96260.03;;;19.34;33.11
28267;BME280;15525;45.568;5.448;2024-03-29T01:28:42;96277.34;;;19.26;33.40
28267;BME280;15525;45.568;5.448;2024-03-29T01:31:08;96265.41;;;19.31;33.20
28267;BME280;15525;45.568;5.448;2024-03-29T01:33:33;96264.72;;;19.11;33.84
28267;BME280;15525;45.568;5.448;2024-03-29T01:36:05;96262.41;;;19.39;33.61
28267;BME280;15525;45.568;5.448;2024-03-29T01:38:31;96282.53;;;19.35;33.66
28267;BME280;15525;45.568;5.448;2024-03-29T01:40:56;96269.00;;;19.38;33.93
28267;BME280;15525;45.568;5.448;2024-03-29T01:43:22;96260.63;;;19.21;34.36
28267;BME280;15525;45.568;5.448;2024-03-29T01:45:49;96270.88;;;19.34;34.42
28267;BME280;15525;45.568;5.448;2024-03-29T01:48:17;96265.06;;;19.32;34.39
28267;BME280;15525;45.568;5.448;2024-03-29T01:50:44;96265.53;;;19.41;34.61
28267;BME280;15525;45.568;5.448;2024-03-29T01:53:10;96278.19;;;19.60;34.31
28267;BME280;15525;45.568;5.448;2024-03-29T01:55:36;96284.22;;;19.46;34.85
28267;BME280;15525;45.568;5.448;2024-03-29T01:58:02;96275.97;;;19.69;34.60
28267;BME280;15525;45.568;5.448;2024-03-29T02:00:28;96284.25;;;19.50;35.07
28267;BME280;15525;45.568;5.448;2024-03-29T02:02:56;96288.84;;;19.75;35.05
28267;BME280;15525;45.568;5.448;2024-03-29T02:05:26;96284.44;;;19.64;35.45
28267;BME280;15525;45.568;5.448;2024-03-29T02:07:52;96285.00;;;19.80;35.16
28267;BME280;15525;45.568;5.448;2024-03-29T02:10:19;96286.13;;;19.75;35.67
28267;BME280;15525;45.568;5.448;2024-03-29T02:12:44;96266.38;;;19.78;36.20
28267;BME280;15525;45.568;5.448;2024-03-29T02:15:14;96290.84;;;19.82;35.89
28267;BME280;15525;45.568;5.448;2024-03-29T02:17:41;96297.88;;;19.86;36.05
28267;BME280;15525;45.568;5.448;2024-03-29T02:20:07;96307.28;;;19.92;35.95
28267;BME280;15525;45.568;5.448;2024-03-29T02:22:36;96285.53;;;19.92;36.11
28267;BME280;15525;45.568;5.448;2024-03-29T02:25:02;96282.97;;;19.73;36.75
28267;BME280;15525;45.568;5.448;2024-03-29T02:27:28;96298.69;;;19.90;36.34
28267;BME280;15525;45.568;5.448;2024-03-29T02:29:53;96314.78;;;19.73;37.26
28267;BME280;15525;45.568;5.448;2024-03-29T02:32:18;96294.78;;;19.88;36.84
28267;BME280;15525;45.568;5.448;2024-03-29T02:34:44;96293.03;;;20.02;36.96
28267;BME280;15525;45.568;5.448;2024-03-29T02:37:09;96300.16;;;20.14;37.05
28267;BME280;15525;45.568;5.448;2024-03-29T02:39:35;96286.16;;;20.12;37.16
28267;BME280;15525;45.568;5.448;2024-03-29T02:42:00;96276.94;;;20.23;36.99
28267;BME280;15525;45.568;5.448;2024-03-29T02:44:26;96285.78;;;20.13;37.53
28267;BME280;15525;45.568;5.448;2024-03-29T02:46:51;96272.66;;;20.19;37.49
28267;BME280;15525;45.568;5.448;2024-03-29T02:49:16;96255.91;;;20.13;38.04
28267;BME280;15525;45.568;5.448;2024-03-29T02:51:42;96269.19;;;20.22;38.18
28267;BME280;15525;45.568;5.448;2024-03-29T02:54:07;96251.41;;;20.31;38.47
28267;BME280;15525;45.568;5.448;2024-03-29T02:56:32;96247.81;;;20.20;38.79
28267;BME280;15525;45.568;5.448;2024-03-29T02:58:58;96227.75;;;20.32;38.49
28267;BME280;15525;45.568;5.448;2024-03-29T03:01:23;96244.19;;;20.49;38.25
28267;BME280;15525;45.568;5.448;2024-03-29T03:03:49;96219.25;;;20.37;38.25
28267;BME280;15525;45.568;5.448;2024-03-29T03:06:14;96206.88;;;20.46;38.67
28267;BME280;15525;45.568;5.448;2024-03-29T03:08:39;96186.72;;;20.51;38.13
28267;BME280;15525;45.568;5.448;2024-03-29T03:11:23;96194.75;;;20.33;38.80
28267;BME280;15525;45.568;5.448;2024-03-29T03:13:49;96181.91;;;20.30;39.25
28267;BME280;15525;45.568;5.448;2024-03-29T03:16:14;96156.09;;;20.61;38.31
28267;BME280;15525;45.568;5.448;2024-03-29T03:18:40;96168.59;;;20.69;38.65
28267;BME280;15525;45.568;5.448;2024-03-29T03:21:05;96171.31;;;20.69;38.80
28267;BME280;15525;45.568;5.448;2024-03-29T03:23:31;96176.78;;;20.76;38.64
28267;BME280;15525;45.568;5.448;2024-03-29T03:25:58;96152.47;;;21.01;37.95
28267;BME280;15525;45.568;5.448;2024-03-29T03:28:24;96156.91;;;20.61;38.90
28267;BME280;15525;45.568;5.448;2024-03-29T03:30:51;96158.91;;;20.78;38.46
28267;BME280;15525;45.568;5.448;2024-03-29T03:33:17;96141.94;;;20.96;38.11
28267;BME280;15525;45.568;5.448;2024-03-29T03:35:43;96131.09;;;21.03;38.11
28267;BME280;15525;45.568;5.448;2024-03-29T03:38:08;96131.88;;;21.00;38.13
28267;BME280;15525;45.568;5.448;2024-03-29T03:40:35;96137.34;;;21.07;38.31
28267;BME280;15525;45.568;5.448;2024-03-29T03:43:01;96122.38;;;20.76;38.43
28267;BME280;15525;45.568;5.448;2024-03-29T03:45:27;96130.22;;;20.84;38.30
28267;BME280;15525;45.568;5.448;2024-03-29T03:47:53;96129.84;;;20.89;38.02
28267;BME280;15525;45.568;5.448;2024-03-29T03:50:18;96125.06;;;20.65;38.32
28267;BME280;15525;45.568;5.448;2024-03-29T03:52:44;96130.97;;;20.78;38.30
28267;BME280;15525;45.568;5.448;2024-03-29T03:55:09;96125.09;;;20.76;38.15
28267;BME280;15525;45.568;5.448;2024-03-29T03:57:35;96127.88;;;20.79;38.27
28267;BME280;15525;45.568;5.448;2024-03-29T04:00:00;96122.78;;;20.74;38.30
28267;BME280;15525;45.568;5.448;2024-03-29T04:02:26;96133.59;;;20.60;38.73
28267;BME280;15525;45.568;5.448;2024-03-29T04:04:52;96117.69;;;20.69;38.55
28267;BME280;15525;45.568;5.448;2024-03-29T04:07:17;96088.56;;;20.63;38.25
28267;BME280;15525;45.568;5.448;2024-03-29T04:09:42;96103.75;;;20.74;38.17
28267;BME280;15525;45.568;5.448;2024-03-29T04:12:08;96097.47;;;20.63;38.25
28267;BME280;15525;45.568;5.448;2024-03-29T04:14:33;96110.25;;;20.56;38.59
28267;BME280;15525;45.568;5.448;2024-03-29T04:16:59;96097.47;;;20.63;38.47
28267;BME280;15525;45.568;5.448;2024-03-29T04:19:24;96108.31;;;20.56;38.49
28267;BME280;15525;45.568;5.448;2024-03-29T04:21:49;96089.31;;;20.60;38.44
28267;BME280;15525;45.568;5.448;2024-03-29T04:24:15;96093.94;;;20.56;38.51
28267;BME280;15525;45.568;5.448;2024-03-29T04:26:40;96106.75;;;20.55;38.47
28267;BME280;15525;45.568;5.448;2024-03-29T04:29:06;96094.75;;;20.60;38.34
28267;BME280;15525;45.568;5.448;2024-03-29T04:31:31;96087.75;;;20.62;38.65
28267;BME280;15525;45.568;5.448;2024-03-29T04:33:56;96103.34;;;20.69;38.48
28267;BME280;15525;45.568;5.448;2024-03-29T04:36:22;96099.75;;;20.51;38.79
28267;BME280;15525;45.568;5.448;2024-03-29T04:38:47;96079.41;;;20.27;39.03
28267;BME280;15525;45.568;5.448;2024-03-29T04:41:15;96092.59;;;20.25;39.14
28267;BME280;15525;45.568;5.448;2024-03-29T04:43:42;96089.47;;;20.23;38.81
28267;BME280;15525;45.568;5.448;2024-03-29T04:46:10;96087.56;;;20.27;38.86
28267;BME280;15525;45.568;5.448;2024-03-29T04:48:37;96100.00;;;20.28;38.70
28267;BME280;15525;45.568;5.448;2024-03-29T04:51:03;96085.72;;;20.42;38.55
28267;BME280;15525;45.568;5.448;2024-03-29T04:53:29;96091.56;;;20.47;38.72
28267;BME280;15525;45.568;5.448;2024-03-29T04:55:55;96093.50;;;20.50;38.52
28267;BME280;15525;45.568;5.448;2024-03-29T04:58:25;96094.97;;;20.37;38.73
28267;BME280;15525;45.568;5.448;2024-03-29T05:00:51;96105.13;;;20.44;38.90
28267;BME280;15525;45.568;5.448;2024-03-29T05:03:17;96093.06;;;20.38;38.79
28267;BME280;15525;45.568;5.448;2024-03-29T05:05:44;96109.72;;;20.29;39.14
28267;BME280;15525;45.568;5.448;2024-03-29T05:08:10;96104.81;;;20.05;39.47
28267;BME280;15525;45.568;5.448;2024-03-29T05:10:35;96113.28;;;19.93;39.73
28267;BME280;15525;45.568;5.448;2024-03-29T05:13:00;96109.19;;;20.13;39.71
28267;BME280;15525;45.568;5.448;2024-03-29T05:15:26;96106.13;;;20.18;39.55
28267;BME280;15525;45.568;5.448;2024-03-29T05:17:52;96112.06;;;20.34;39.15
28267;BME280;15525;45.568;5.448;2024-03-29T05:20:18;96120.97;;;20.31;39.15
28267;BME280;15525;45.568;5.448;2024-03-29T05:22:44;96132.28;;;20.40;39.03
28267;BME280;15525;45.568;5.448;2024-03-29T05:25:09;96119.59;;;20.58;38.96
28267;BME280;15525;45.568;5.448;2024-03-29T05:27:35;96130.91;;;20.67;38.83
28267;BME280;15525;45.568;5.448;2024-03-29T05:30:01;96123.03;;;20.52;38.83
28267;BME280;15525;45.568;5.448;2024-03-29T05:32:28;96137.75;;;20.44;39.01
28267;BME280;15525;45.568;5.448;2024-03-29T05:34:53;96134.56;;;20.31;39.25
28267;BME280;15525;45.568;5.448;2024-03-29T05:37:19;96133.72;;;20.24;39.42
28267;BME280;15525;45.568;5.448;2024-03-29T05:39:44;96144.38;;;19.99;39.98
28267;BME280;15525;45.568;5.448;2024-03-29T05:42:10;96168.53;;;20.08;40.12
28267;BME280;15525;45.568;5.448;2024-03-29T05:44:36;96168.81;;;19.99;40.51
28267;BME280;15525;45.568;5.448;2024-03-29T05:47:04;96169.94;;;19.95;40.46
28267;BME280;15525;45.568;5.448;2024-03-29T05:49:33;96175.63;;;19.79;41.14
28267;BME280;15525;45.568;5.448;2024-03-29T05:51:59;96183.53;;;19.95;40.81
28267;BME280;15525;45.568;5.448;2024-03-29T05:54:24;96181.44;;;19.81;41.34
28267;BME280;15525;45.568;5.448;2024-03-29T05:56:50;96185.34;;;19.84;41.28
28267;BME280;15525;45.568;5.448;2024-03-29T05:59:15;96190.63;;;19.66;41.59
28267;BME280;15525;45.568;5.448;2024-03-29T06:01:40;96193.06;;;19.78;41.32
28267;BME280;15525;45.568;5.448;2024-03-29T06:04:07;96200.59;;;19.55;42.06
28267;BME280;15525;45.568;5.448;2024-03-29T06:06:39;96198.09;;;19.40;42.82
28267;BME280;15525;45.568;5.448;2024-03-29T06:09:05;96198.47;;;19.42;42.89
28267;BME280;15525;45.568;5.448;2024-03-29T06:11:30;96184.88;;;19.38;43.02
28267;BME280;15525;45.568;5.448;2024-03-29T06:13:56;96220.19;;;19.42;43.17
28267;BME280;15525;45.568;5.448;2024-03-29T06:16:25;96222.56;;;19.47;43.51
28267;BME280;15525;45.568;5.448;2024-03-29T06:19:10;96215.13;;;19.40;43.59
28267;BME280;15525;45.568;5.448;2024-03-29T06:21:36;96203.38;;;19.29;43.96
28267;BME280;15525;45.568;5.448;2024-03-29T06:24:11;96207.34;;;19.39;44.13
28267;BME280;15525;45.568;5.448;2024-03-29T06:26:40;96213.50;;;19.32;44.25
28267;BME280;15525;45.568;5.448;2024-03-29T06:29:06;96209.75;;;19.44;43.81
28267;BME280;15525;45.568;5.448;2024-03-29T06:31:34;96208.16;;;19.39;43.72
28267;BME280;15525;45.568;5.448;2024-03-29T06:34:00;96212.16;;;19.49;43.96
28267;BME280;15525;45.568;5.448;2024-03-29T06:36:25;96201.00;;;19.57;43.50
28267;BME280;15525;45.568;5.448;2024-03-29T06:38:52;96203.03;;;19.67;43.34
28267;BME280;15525;45.568;5.448;2024-03-29T06:41:18;96190.28;;;19.71;43.14
28267;BME280;15525;45.568;5.448;2024-03-29T06:43:43;96206.16;;;19.69;43.42
28267;BME280;15525;45.568;5.448;2024-03-29T06:46:10;96209.63;;;19.66;43.49
28267;BME280;15525;45.568;5.448;2024-03-29T06:48:35;96199.41;;;19.93;42.75
28267;BME280;15525;45.568;5.448;2024-03-29T06:51:02;96219.22;;;19.97;42.57
28267;BME280;15525;45.568;5.448;2024-03-29T06:53:28;96208.91;;;20.09;42.66
28267;BME280;15525;45.568;5.448;2024-03-29T06:55:55;96214.41;;;20.16;42.73
28267;BME280;15525;45.568;5.448;2024-03-29T06:58:21;96217.59;;;20.25;42.25
28267;BME280;15525;45.568;5.448;2024-03-29T07:00:47;96223.84;;;20.33;42.12
28267;BME280;15525;45.568;5.448;2024-03-29T07:03:14;96204.47;;;20.34;42.26
28267;BME280;15525;45.568;5.448;2024-03-29T07:05:40;96220.53;;;20.57;41.79
28267;BME280;15525;45.568;5.448;2024-03-29T07:08:06;96219.00;;;20.59;41.70
28267;BME280;15525;45.568;5.448;2024-03-29T07:10:32;96215.25;;;20.74;41.68
28267;BME280;15525;45.568;5.448;2024-03-29T07:12:57;96207.19;;;20.88;41.03
28267;BME280;15525;45.568;5.448;2024-03-29T07:15:23;96227.16;;;21.10;41.04
28267;BME280;15525;45.568;5.448;2024-03-29T07:17:49;96209.34;;;21.23;40.73
28267;BME280;15525;45.568;5.448;2024-03-29T07:20:16;96225.31;;;21.35;40.40
28267;BME280;15525;45.568;5.448;2024-03-29T07:22:42;96228.41;;;21.34;40.18
28267;BME280;15525;45.568;5.448;2024-03-29T07:25:07;96218.41;;;21.55;39.95
28267;BME280;15525;45.568;5.448;2024-03-29T07:27:33;96222.72;;;21.67;39.56
28267;BME280;15525;45.568;5.448;2024-03-29T07:30:02;96246.44;;;21.63;39.46
28267;BME280;15525;45.568;5.448;2024-03-29T07:32:30;96225.09;;;21.75;38.94
28267;BME280;15525;45.568;5.448;2024-03-29T07:34:55;96234.84;;;21.80;39.05
28267;BME280;15525;45.568;5.448;2024-03-29T07:37:25;96239.09;;;21.74;38.96
28267;BME280;15525;45.568;5.448;2024-03-29T07:39:51;96243.06;;;22.01;38.72
28267;BME280;15525;45.568;5.448;2024-03-29T07:42:16;96240.38;;;22.08;38.56
28267;BME280;15525;45.568;5.448;2024-03-29T07:44:42;96231.75;;;21.92;38.59
28267;BME280;15525;45.568;5.448;2024-03-29T07:47:08;96243.47;;;22.13;38.42
28267;BME280;15525;45.568;5.448;2024-03-29T07:49:33;96232.25;;;22.50;38.02
28267;BME280;15525;45.568;5.448;2024-03-29T07:51:59;96238.06;;;22.45;38.02
28267;BME280;15525;45.568;5.448;2024-03-29T07:54:27;96248.97;;;22.41;37.94
28267;BME280;15525;45.568;5.448;2024-03-29T07:56:53;96241.94;;;22.23;38.18
28267;BME280;15525;45.568;5.448;2024-03-29T07:59:18;96263.38;;;22.35;38.16
28267;BME280;15525;45.568;5.448;2024-03-29T08:01:45;96259.09;;;22.37;37.61
28267;BME280;15525;45.568;5.448;2024-03-29T08:04:10;96258.72;;;22.46;37.65
28267;BME280;15525;45.568;5.448;2024-03-29T08:06:36;96250.56;;;22.56;37.65
28267;BME280;15525;45.568;5.448;2024-03-29T08:09:01;96264.19;;;22.56;37.80
28267;BME280;15525;45.568;5.448;2024-03-29T08:11:27;96261.47;;;22.46;37.87
28267;BME280;15525;45.568;5.448;2024-03-29T08:13:52;96265.38;;;22.69;37.19
28267;BME280;15525;45.568;5.448;2024-03-29T08:16:18;96254.41;;;22.94;36.97
28267;BME280;15525;45.568;5.448;2024-03-29T08:18:45;96287.94;;;23.08;36.72
28267;BME280;15525;45.568;5.448;2024-03-29T08:21:12;96266.16;;;22.87;37.07
28267;BME280;15525;45.568;5.448;2024-03-29T08:23:41;96289.53;;;22.78;37.27
28267;BME280;15525;45.568;5.448;2024-03-29T08:26:10;96288.34;;;23.03;37.12
28267;BME280;15525;45.568;5.448;2024-03-29T08:28:36;96281.31;;;23.20;36.87
28267;BME280;15525;45.568;5.448;2024-03-29T08:31:05;96292.63;;;22.87;37.15
28267;BME280;15525;45.568;5.448;2024-03-29T08:33:32;96290.28;;;22.99;37.03
28267;BME280;15525;45.568;5.448;2024-03-29T08:35:57;96287.91;;;23.12;36.97
28267;BME280;15525;45.568;5.448;2024-03-29T08:38:23;96286.38;;;23.32;36.68
28267;BME280;15525;45.568;5.448;2024-03-29T08:40:49;96287.56;;;22.96;37.03
28267;BME280;15525;45.568;5.448;2024-03-29T08:43:15;96288.72;;;22.88;37.01
28267;BME280;15525;45.568;5.448;2024-03-29T08:45:43;96296.13;;;23.22;36.66
28267;BME280;15525;45.568;5.448;2024-03-29T08:48:09;96289.88;;;23.15;36.51
28267;BME280;15525;45.568;5.448;2024-03-29T08:50:35;96283.25;;;23.23;36.51
28267;BME280;15525;45.568;5.448;2024-03-29T08:53:01;96275.47;;;22.97;36.07
28267;BME280;15525;45.568;5.448;2024-03-29T08:55:31;96284.81;;;23.17;35.95
28267;BME280;15525;45.568;5.448;2024-03-29T08:57:57;96278.41;;;23.76;35.14
28267;BME280;15525;45.568;5.448;2024-03-29T09:00:24;96276.16;;;23.46;35.12
28267;BME280;15525;45.568;5.448;2024-03-29T09:02:50;96249.34;;;23.06;35.02
28267;BME280;15525;45.568;5.448;2024-03-29T09:05:15;96269.56;;;23.37;34.69
28267;BME280;15525;45.568;5.448;2024-03-29T09:07:41;96286.66;;;23.62;34.65
28267;BME280;15525;45.568;5.448;2024-03-29T09:10:07;96277.53;;;23.96;34.16
28267;BME280;15525;45.568;5.448;2024-03-29T09:12:32;96269.84;;;23.67;34.25
28267;BME280;15525;45.568;5.448;2024-03-29T09:14:58;96279.25;;;23.59;34.07
28267;BME280;15525;45.568;5.448;2024-03-29T09:17:23;96265.97;;;23.61;34.06
28267;BME280;15525;45.568;5.448;2024-03-29T09:19:52;96274.16;;;23.68;33.42
28267;BME280;15525;45.568;5.448;2024-03-29T09:22:18;96287.47;;;23.59;33.36
28267;BME280;15525;45.568;5.448;2024-03-29T09:24:44;96296.75;;;23.75;32.99
28267;BME280;15525;45.568;5.448;2024-03-29T09:27:09;96305.00;;;23.61;32.99
28267;BME280;15525;45.568;5.448;2024-03-29T09:29:35;96290.91;;;23.73;32.93
28267;BME280;15525;45.568;5.448;2024-03-29T09:32:00;96276.84;;;23.75;32.77
28267;BME280;15525;45.568;5.448;2024-03-29T09:34:29;96285.06;;;23.71;32.23
28267;BME280;15525;45.568;5.448;2024-03-29T09:36:56;96281.75;;;24.15;31.98
28267;BME280;15525;45.568;5.448;2024-03-29T09:39:21;96279.09;;;24.01;31.76
28267;BME280;15525;45.568;5.448;2024-03-29T09:41:46;96296.25;;;24.08;31.83
28267;BME280;15525;45.568;5.448;2024-03-29T09:44:12;96288.88;;;24.63;31.43
28267;BME280;15525;45.568;5.448;2024-03-29T09:46:39;96262.94;;;24.24;31.18
28267;BME280;15525;45.568;5.448;2024-03-29T09:49:07;96283.69;;;24.21;31.35
28267;BME280;15525;45.568;5.448;2024-03-29T09:51:33;96299.25;;;24.28;31.35
28267;BME280;15525;45.568;5.448;2024-03-29T09:54:00;96292.38;;;23.99;31.52
28267;BME280;15525;45.568;5.448;2024-03-29T09:56:26;96295.38;;;24.25;31.09
28267;BME280;15525;45.568;5.448;2024-03-29T09:58:52;96302.91;;;24.07;31.05
28267;BME280;15525;45.568;5.448;2024-03-29T10:01:18;96287.66;;;24.10;31.15
28267;BME280;15525;45.568;5.448;2024-03-29T10:03:47;96287.50;;;24.31;31.16
28267;BME280;15525;45.568;5.448;2024-03-29T10:06:15;96259.13;;;24.11;30.97
28267;BME280;15525;45.568;5.448;2024-03-29T10:08:40;96278.16;;;24.28;31.08
28267;BME280;15525;45.568;5.448;2024-03-29T10:11:06;96256.19;;;24.39;31.08
28267;BME280;15525;45.568;5.448;2024-03-29T10:13:31;96281.41;;;24.13;31.05
28267;BME280;15525;45.568;5.448;2024-03-29T10:15:57;96265.03;;;23.99;31.34
28267;BME280;15525;45.568;5.448;2024-03-29T10:18:23;96269.78;;;23.95;31.25
28267;BME280;15525;45.568;5.448;2024-03-29T10:21:02;96263.50;;;23.98;31.31
28267;BME280;15525;45.568;5.448;2024-03-29T10:23:28;96261.78;;;24.21;30.91
28267;BME280;15525;45.568;5.448;2024-03-29T10:25:54;96257.22;;;24.01;30.99
28267;BME280;15525;45.568;5.448;2024-03-29T10:28:20;96259.31;;;24.41;30.68
28267;BME280;15525;45.568;5.448;2024-03-29T10:30:45;96254.66;;;24.38;30.73
28267;BME280;15525;45.568;5.448;2024-03-29T10:33:15;96256.47;;;23.97;30.88
28267;BME280;15525;45.568;5.448;2024-03-29T10:35:44;96248.63;;;24.02;31.05
28267;BME280;15525;45.568;5.448;2024-03-29T10:38:10;96238.25;;;23.66;31.19
28267;BME280;15525;45.568;5.448;2024-03-29T10:40:38;96240.50;;;23.81;31.14
28267;BME280;15525;45.568;5.448;2024-03-29T10:43:08;96230.59;;;24.15;31.10
28267;BME280;15525;45.568;5.448;2024-03-29T10:45:37;96232.50;;;24.18;31.24
28267;BME280;15525;45.568;5.448;2024-03-29T10:48:04;96230.03;;;23.66;31.46
28267;BME280;15525;45.568;5.448;2024-03-29T10:50:37;96241.72;;;23.77;31.37
28267;BME280;15525;45.568;5.448;2024-03-29T10:53:05;96238.44;;;24.10;31.08
28267;BME280;15525;45.568;5.448;2024-03-29T10:55:33;96216.50;;;24.17;30.43
28267;BME280;15525;45.568;5.448;2024-03-29T10:58:00;96217.97;;;24.32;31.04
28267;BME280;15525;45.568;5.448;2024-03-29T11:00:28;96220.34;;;24.26;30.39
28267;BME280;15525;45.568;5.448;2024-03-29T11:02:57;96222.56;;;24.42;30.43
28267;BME280;15525;45.568;5.448;2024-03-29T11:05:30;96225.72;;;24.40;30.58
28267;BME280;15525;45.568;5.448;2024-03-29T11:07:56;96224.19;;;24.36;30.65
28267;BME280;15525;45.568;5.448;2024-03-29T11:10:35;96227.94;;;24.59;31.11
28267;BME280;15525;45.568;5.448;2024-03-29T11:15:45;96207.53;;;24.67;30.22
28267;BME280;15525;45.568;5.448;2024-03-29T11:18:13;96195.59;;;24.88;29.87
28267;BME280;15525;45.568;5.448;2024-03-29T11:20:42;96185.03;;;25.23;29.83
28267;BME280;15525;45.568;5.448;2024-03-29T11:23:14;96191.72;;;25.22;29.48
28267;BME280;15525;45.568;5.448;2024-03-29T11:25:51;96197.66;;;25.17;29.29
28267;BME280;15525;45.568;5.448;2024-03-29T11:28:29;96180.22;;;25.38;29.59
28267;BME280;15525;45.568;5.448;2024-03-29T11:31:00;96182.19;;;25.67;28.92
28267;BME280;15525;45.568;5.448;2024-03-29T11:35:51;96169.94;;;25.75;28.94
28267;BME280;15525;45.568;5.448;2024-03-29T11:38:18;96166.78;;;25.47;28.98
28267;BME280;15525;45.568;5.448;2024-03-29T11:40:54;96170.16;;;25.24;28.31
28267;BME280;15525;45.568;5.448;2024-03-29T11:43:19;96170.38;;;25.07;29.02
28267;BME280;15525;45.568;5.448;2024-03-29T11:45:45;96164.94;;;25.03;28.94
28267;BME280;15525;45.568;5.448;2024-03-29T11:48:15;96170.44;;;25.37;28.54
28267;BME280;15525;45.568;5.448;2024-03-29T11:50:40;96152.22;;;25.20;28.31
28267;BME280;15525;45.568;5.448;2024-03-29T11:53:06;96154.00;;;25.37;28.28
28267;BME280;15525;45.568;5.448;2024-03-29T11:55:31;96160.25;;;25.37;28.11
28267;BME280;15525;45.568;5.448;2024-03-29T11:57:59;96157.66;;;25.57;27.86
28267;BME280;15525;45.568;5.448;2024-03-29T12:00:27;96150.91;;;25.65;27.87
28267;BME280;15525;45.568;5.448;2024-03-29T12:02:55;96152.72;;;26.01;27.81
28267;BME280;15525;45.568;5.448;2024-03-29T12:05:22;96135.22;;;26.18;27.67
28267;BME280;15525;45.568;5.448;2024-03-29T12:07:48;96144.03;;;26.06;27.56
28267;BME280;15525;45.568;5.448;2024-03-29T12:10:14;96143.31;;;26.02;27.72
28267;BME280;15525;45.568;5.448;2024-03-29T12:12:39;96140.41;;;26.36;27.60
28267;BME280;15525;45.568;5.448;2024-03-29T12:15:07;96132.66;;;26.31;27.57
28267;BME280;15525;45.568;5.448;2024-03-29T12:17:33;96116.44;;;26.17;27.76
28267;BME280;15525;45.568;5.448;2024-03-29T12:19:59;96129.06;;;25.58;28.20
28267;BME280;15525;45.568;5.448;2024-03-29T12:22:31;96126.84;;;25.76;28.03
28267;BME280;15525;45.568;5.448;2024-03-29T12:24:57;96121.44;;;26.22;27.79
28267;BME280;15525;45.568;5.448;2024-03-29T12:27:23;96110.94;;;26.17;27.54
28267;BME280;15525;45.568;5.448;2024-03-29T12:29:50;96148.13;;;26.21;27.54
28267;BME280;15525;45.568;5.448;2024-03-29T12:32:19;96118.03;;;26.37;27.00
28267;BME280;15525;45.568;5.448;2024-03-29T12:34:45;96123.09;;;26.85;26.22
28267;BME280;15525;45.568;5.448;2024-03-29T12:37:10;96110.50;;;27.07;26.38
28267;BME280;15525;45.568;5.448;2024-03-29T12:39:36;96110.78;;;27.32;26.02
28267;BME280;15525;45.568;5.448;2024-03-29T12:42:04;96117.00;;;27.36;26.47
28267;BME280;15525;45.568;5.448;2024-03-29T12:44:30;96114.19;;;26.58;26.30
28267;BME280;15525;45.568;5.448;2024-03-29T12:46:58;96108.69;;;26.35;26.16
28267;BME280;15525;45.568;5.448;2024-03-29T12:49:26;96111.06;;;26.56;26.25
28267;BME280;15525;45.568;5.448;2024-03-29T12:51:51;96102.78;;;26.59;26.15
28267;BME280;15525;45.568;5.448;2024-03-29T12:54:17;96099.78;;;26.73;25.58
28267;BME280;15525;45.568;5.448;2024-03-29T12:56:44;96121.81;;;26.24;25.17
28267;BME280;15525;45.568;5.448;2024-03-29T12:59:09;96106.59;;;26.42;25.35
28267;BME280;15525;45.568;5.448;2024-03-29T13:01:35;96107.88;;;26.61;25.32